Time;durP1;ratioP1;P1;durP2;ratioP2;P2;SDS_P1;SDS_P2;PMS_P1;PMS_P2;Temp;Humidity;BMP_temperature;BMP_pressure;BME280_temperature;BME280_humidity;BME280_pressure;Samples;Min_cycle;Max_cycle;Signal;HPM_P1;HPM_P2
2023/10/09 00:02:58;;;;;;;9.90;4.63;;;;;;;;;;5049970;28;20176;-89
2023/10/09 00:05:31;;;;;;;12.40;4.30;;;;;;;;;;5048101;28;20183;-90
2023/10/09 00:07:57;;;;;;;16.97;5.57;;;;;;;;;;5061063;28;20185;-90
2023/10/09 00:10:25;;;;;;;10.97;4.83;;;;;;;;;;5056113;28;20193;-90
2023/10/09 00:12:50;;;;;;;11.63;4.23;;;;;;;;;;5051920;28;20223;-89
2023/10/09 00:15:17;;;;;;;15.27;4.33;;;;;;;;;;5042658;28;20180;-90
2023/10/09 00:17:46;;;;;;;11.30;4.83;;;;;;;;;;5048863;28;20249;-90
2023/10/09 00:20:20;;;;;;;20.23;5.23;;;;;;;;;;5048378;28;20235;-90
2023/10/09 00:22:46;;;;;;;17.67;5.07;;;;;;;;;;5051448;28;20175;-90
2023/10/09 00:25:12;;;;;;;10.10;4.13;;;;;;;;;;5050146;28;20232;-90
2023/10/09 00:27:41;;;;;;;19.53;4.90;;;;;;;;;;5044982;28;20190;-90
2023/10/09 00:30:07;;;;;;;15.93;4.80;;;;;;;;;;5060024;28;20180;-89
2023/10/09 00:32:33;;;;;;;13.07;3.80;;;;;;;;;;5041920;28;20175;-90
2023/10/09 00:35:30;;;;;;;18.33;5.73;;;;;;;;;;5062170;28;20166;-90
2023/10/09 00:37:44;;;;;;;16.33;4.37;;;;;;;;;;5046150;28;20183;-89
2023/10/09 00:40:20;;;;;;;16.33;4.40;;;;;;;;;;5043000;28;20183;-89
2023/10/09 00:42:46;;;;;;;17.07;4.33;;;;;;;;;;5053901;28;20178;-89
2023/10/09 00:45:16;;;;;;;21.83;4.97;;;;;;;;;;5047595;28;20235;-90
2023/10/09 00:47:43;;;;;;;16.27;4.53;;;;;;;;;;5042707;28;20187;-90
2023/10/09 00:52:49;;;;;;;16.73;4.00;;;;;;;;;;5054932;28;20201;-90
2023/10/09 00:55:20;;;;;;;15.30;5.73;;;;;;;;;;5043241;28;20208;-89
2023/10/09 00:57:56;;;;;;;14.30;4.40;;;;;;;;;;5050042;28;20174;-90
2023/10/09 01:00:45;;;;;;;13.00;4.13;;;;;;;;;;5049665;28;20189;-91
2023/10/09 01:05:52;;;;;;;15.13;4.70;;;;;;;;;;5058139;28;20184;-91
2023/10/09 01:08:26;;;;;;;19.47;4.23;;;;;;;;;;5045194;28;20388;-89
2023/10/09 01:10:56;;;;;;;11.73;4.90;;;;;;;;;;5045999;28;20176;-90
2023/10/09 01:13:27;;;;;;;11.27;4.03;;;;;;;;;;5048697;28;20241;-89
2023/10/09 01:15:52;;;;;;;11.13;5.20;;;;;;;;;;5049203;28;20183;-89
2023/10/09 01:18:19;;;;;;;15.07;5.27;;;;;;;;;;5045770;28;20232;-90
2023/10/09 01:20:45;;;;;;;12.60;4.27;;;;;;;;;;5042778;28;20180;-90
2023/10/09 01:23:11;;;;;;;12.47;4.30;;;;;;;;;;5047080;28;20266;-90
2023/10/09 01:25:44;;;;;;;30.53;4.53;;;;;;;;;;5053253;28;20175;-89
2023/10/09 01:28:09;;;;;;;15.40;4.30;;;;;;;;;;5044104;28;20292;-90
2023/10/09 01:30:41;;;;;;;17.07;4.53;;;;;;;;;;5053160;28;20240;-90
2023/10/09 01:33:12;;;;;;;13.50;4.50;;;;;;;;;;5051589;28;20201;-91
2023/10/09 01:35:47;;;;;;;12.83;4.13;;;;;;;;;;5044460;28;20208;-90
2023/10/09 01:38:14;;;;;;;16.77;4.33;;;;;;;;;;5049326;28;20179;-90
2023/10/09 01:40:40;;;;;;;16.23;4.73;;;;;;;;;;5046108;28;20189;-90
2023/10/09 01:43:05;;;;;;;11.80;4.10;;;;;;;;;;5051989;28;20183;-90
2023/10/09 01:45:41;;;;;;;11.53;3.90;;;;;;;;;;5044939;28;20318;-90
2023/10/09 01:48:08;;;;;;;13.03;4.40;;;;;;;;;;5059797;28;20200;-90
2023/10/09 01:50:35;;;;;;;13.03;4.90;;;;;;;;;;5046611;28;20265;-90
2023/10/09 01:53:02;;;;;;;12.80;3.70;;;;;;;;;;5051962;28;20204;-91
2023/10/09 01:55:39;;;;;;;11.70;4.20;;;;;;;;;;5040665;28;20187;-90
2023/10/09 01:58:24;;;;;;;14.23;3.90;;;;;;;;;;5049218;28;20209;-90
2023/10/09 02:00:54;;;;;;;12.20;3.80;;;;;;;;;;5047301;28;20177;-91
2023/10/09 02:03:25;;;;;;;17.53;4.37;;;;;;;;;;5048929;28;20203;-90
2023/10/09 02:05:51;;;;;;;8.23;4.03;;;;;;;;;;5050085;28;20452;-89
2023/10/09 02:08:21;;;;;;;19.23;4.77;;;;;;;;;;5046300;28;20311;-91
2023/10/09 02:10:47;;;;;;;11.97;4.17;;;;;;;;;;5042807;28;20196;-89
2023/10/09 02:13:16;;;;;;;14.67;3.97;;;;;;;;;;5047622;28;20289;-90
2023/10/09 02:26:46;;;;;;;15.77;4.87;;;;;;;;;;5041513;28;20564;-72
2023/10/09 02:31:51;;;;;;;11.43;4.47;;;;;;;;;;5061380;28;20220;-72
2023/10/09 02:34:21;;;;;;;15.43;4.40;;;;;;;;;;5059884;28;20186;-72
2023/10/09 02:36:49;;;;;;;15.93;3.93;;;;;;;;;;5066942;28;20175;-72
2023/10/09 02:40:01;;;;;;;11.83;3.70;;;;;;;;;;5059603;28;20213;-72
2023/10/09 02:42:19;;;;;;;12.17;4.50;;;;;;;;;;5059917;28;20198;-73
2023/10/09 02:44:49;;;;;;;17.43;5.47;;;;;;;;;;5065606;28;20195;-72
2023/10/09 02:47:20;;;;;;;15.80;4.40;;;;;;;;;;5060020;28;20307;-72
2023/10/09 02:49:48;;;;;;;12.90;4.40;;;;;;;;;;5066491;28;20179;-72
2023/10/09 02:52:17;;;;;;;16.10;3.90;;;;;;;;;;5063912;28;20177;-72
2023/10/09 02:54:47;;;;;;;14.17;4.53;;;;;;;;;;5056928;28;20225;-72
2023/10/09 02:57:28;;;;;;;14.53;4.13;;;;;;;;;;5059967;28;20186;-72
2023/10/09 02:59:53;;;;;;;11.47;4.17;;;;;;;;;;5056913;28;20176;-72
2023/10/09 03:02:18;;;;;;;16.47;4.93;;;;;;;;;;5059212;28;20270;-72
2023/10/09 03:04:44;;;;;;;17.40;5.70;;;;;;;;;;5059823;28;20200;-72
2023/10/09 03:07:10;;;;;;;16.93;5.03;;;;;;;;;;5057391;28;20595;-72
2023/10/09 03:09:35;;;;;;;16.37;4.57;;;;;;;;;;5058200;28;20288;-72
2023/10/09 03:12:02;;;;;;;17.47;5.10;;;;;;;;;;5053195;28;20233;-72
2023/10/09 03:14:28;;;;;;;15.77;4.63;;;;;;;;;;5054165;28;20180;-72
2023/10/09 03:16:54;;;;;;;22.63;5.77;;;;;;;;;;5051140;28;20218;-72
2023/10/09 03:19:19;;;;;;;20.07;6.10;;;;;;;;;;5054883;28;20190;-72
2023/10/09 03:21:45;;;;;;;18.60;5.47;;;;;;;;;;5068652;28;20191;-72
2023/10/09 03:24:11;;;;;;;24.10;5.33;;;;;;;;;;5062466;28;20179;-72
2023/10/09 03:26:37;;;;;;;14.70;4.90;;;;;;;;;;5066187;28;20168;-72
2023/10/09 03:29:06;;;;;;;25.53;6.33;;;;;;;;;;5068848;28;20174;-72
2023/10/09 03:31:31;;;;;;;16.77;4.47;;;;;;;;;;5062554;28;20291;-72
2023/10/09 03:33:57;;;;;;;17.80;5.50;;;;;;;;;;5051294;28;20180;-72
2023/10/09 03:36:26;;;;;;;21.57;5.00;;;;;;;;;;5046356;28;20177;-72
2023/10/09 03:38:54;;;;;;;15.30;5.10;;;;;;;;;;5045737;28;20181;-72
2023/10/09 03:41:20;;;;;;;17.23;5.67;;;;;;;;;;5041060;28;21664;-72
2023/10/09 03:43:46;;;;;;;19.47;5.30;;;;;;;;;;5041198;28;20175;-72
2023/10/09 03:46:32;;;;;;;18.87;5.97;;;;;;;;;;5045848;28;20212;-72
2023/10/09 03:49:00;;;;;;;14.60;4.90;;;;;;;;;;5054993;28;20209;-73
2023/10/09 03:51:26;;;;;;;18.63;5.43;;;;;;;;;;5045202;28;20175;-72
2023/10/09 03:53:54;;;;;;;18.57;5.23;;;;;;;;;;5050485;28;20185;-72
2023/10/09 03:56:21;;;;;;;20.03;4.70;;;;;;;;;;5045447;28;20200;-72
2023/10/09 03:58:47;;;;;;;25.60;4.77;;;;;;;;;;5046018;28;20177;-72
2023/10/09 04:01:17;;;;;;;14.57;5.17;;;;;;;;;;5043927;28;20174;-72
2023/10/09 04:03:43;;;;;;;14.67;6.00;;;;;;;;;;5045972;28;20240;-73
2023/10/09 04:06:11;;;;;;;15.93;5.17;;;;;;;;;;5041763;28;20338;-73
2023/10/09 04:08:39;;;;;;;17.03;5.07;;;;;;;;;;5042881;28;20193;-73
2023/10/09 04:11:15;;;;;;;18.17;5.20;;;;;;;;;;5042705;28;20178;-73
2023/10/09 04:13:41;;;;;;;11.97;4.47;;;;;;;;;;5041263;28;20177;-72
2023/10/09 04:16:11;;;;;;;14.70;3.77;;;;;;;;;;5045926;28;20181;-72
2023/10/09 04:18:38;;;;;;;10.70;4.77;;;;;;;;;;5044201;28;20254;-72
2023/10/09 04:21:18;;;;;;;15.83;4.30;;;;;;;;;;5045906;28;20184;-72
2023/10/09 04:26:29;;;;;;;17.17;4.27;;;;;;;;;;5047829;28;20232;-72
2023/10/09 04:28:54;;;;;;;18.47;4.53;;;;;;;;;;5048660;28;20183;-73
2023/10/09 04:31:21;;;;;;;17.00;4.13;;;;;;;;;;5046748;28;20236;-72
2023/10/09 04:33:57;;;;;;;18.47;4.47;;;;;;;;;;5039376;28;20177;-72
2023/10/09 04:36:22;;;;;;;11.93;4.20;;;;;;;;;;5043499;28;20180;-73
2023/10/09 04:41:33;;;;;;;15.73;4.80;;;;;;;;;;5041549;28;20218;-72
2023/10/09 04:47:17;;;;;;;12.23;4.33;;;;;;;;;;5046251;28;20201;-73
2023/10/09 04:49:34;;;;;;;14.70;4.13;;;;;;;;;;5030677;28;20203;-72
2023/10/09 04:52:09;;;;;;;21.40;5.03;;;;;;;;;;5034020;28;20189;-73
2023/10/09 04:55:02;;;;;;;11.10;3.97;;;;;;;;;;5040081;28;21638;-72
2023/10/09 04:57:25;;;;;;;13.00;3.53;;;;;;;;;;5043822;28;20193;-72
2023/10/09 04:59:51;;;;;;;11.90;3.80;;;;;;;;;;5040367;28;20182;-72
2023/10/09 05:02:19;;;;;;;20.60;3.90;;;;;;;;;;5034853;28;20224;-71
2023/10/09 05:04:47;;;;;;;12.93;3.80;;;;;;;;;;5032254;28;20247;-71
2023/10/09 05:10:14;;;;;;;9.53;3.70;;;;;;;;;;5043408;28;20330;-71
2023/10/09 05:12:46;;;;;;;14.57;4.17;;;;;;;;;;5048745;28;20222;-70
2023/10/09 05:15:13;;;;;;;11.40;3.47;;;;;;;;;;5039120;28;20277;-71
2023/10/09 05:17:39;;;;;;;11.00;3.93;;;;;;;;;;5047971;28;20179;-71
2023/10/09 05:22:59;;;;;;;9.93;3.57;;;;;;;;;;5041085;28;20197;-71
2023/10/09 05:25:53;;;;;;;12.53;4.23;;;;;;;;;;5042456;28;20308;-71
2023/10/09 05:28:48;;;;;;;15.00;4.43;;;;;;;;;;5041648;28;20172;-71
2023/10/09 05:31:44;;;;;;;11.07;3.30;;;;;;;;;;5043228;28;20194;-71
2023/10/09 05:34:01;;;;;;;14.60;5.13;;;;;;;;;;5043417;28;20183;-71
2023/10/09 05:41:52;;;;;;;11.07;4.33;;;;;;;;;;5035530;28;20211;-70
2023/10/09 05:49:46;;;;;;;12.27;4.53;;;;;;;;;;5044851;28;20250;-70
2023/10/09 06:03:23;;;;;;;11.33;4.10;;;;;;;;;;5037485;28;20321;-70
2023/10/09 06:06:18;;;;;;;10.30;4.23;;;;;;;;;;5037635;28;20282;-71
2023/10/09 06:11:06;;;;;;;7.80;3.67;;;;;;;;;;5048802;28;20180;-71
2023/10/09 06:13:37;;;;;;;11.53;4.00;;;;;;;;;;5048558;28;20209;-70
2023/10/09 06:16:19;;;;;;;13.50;4.10;;;;;;;;;;5040208;28;20204;-71
2023/10/09 06:18:53;;;;;;;10.60;4.50;;;;;;;;;;5038883;28;20185;-70
2023/10/09 06:21:39;;;;;;;11.83;4.10;;;;;;;;;;5034973;28;20187;-71
2023/10/09 06:24:23;;;;;;;11.10;4.27;;;;;;;;;;5039548;28;20214;-71
2023/10/09 06:32:23;;;;;;;13.50;4.77;;;;;;;;;;5045437;28;20173;-71
2023/10/09 06:34:51;;;;;;;16.37;5.13;;;;;;;;;;5038251;28;20196;-71
2023/10/09 06:40:09;;;;;;;11.37;4.37;;;;;;;;;;5045117;28;20200;-70
2023/10/09 06:47:53;;;;;;;15.30;4.60;;;;;;;;;;5045464;28;20187;-70
2023/10/09 06:55:49;;;;;;;18.67;4.63;;;;;;;;;;5034505;28;20234;-70
2023/10/09 06:58:27;;;;;;;21.17;5.07;;;;;;;;;;5041779;28;20191;-70
2023/10/09 07:03:32;;;;;;;20.13;4.77;;;;;;;;;;5036985;28;20193;-71
2023/10/09 07:06:23;;;;;;;17.53;4.87;;;;;;;;;;5037796;28;20196;-71
2023/10/09 07:08:59;;;;;;;20.23;5.40;;;;;;;;;;5032965;28;20177;-71
2023/10/09 07:14:32;;;;;;;20.83;5.00;;;;;;;;;;5040831;28;20177;-71
2023/10/09 07:16:57;;;;;;;16.50;5.33;;;;;;;;;;5041667;28;20193;-71
2023/10/09 07:22:02;;;;;;;22.80;5.10;;;;;;;;;;5043227;28;20175;-71
2023/10/09 07:24:37;;;;;;;27.67;6.23;;;;;;;;;;5038973;28;20351;-71
2023/10/09 07:27:08;;;;;;;21.03;5.23;;;;;;;;;;5048057;28;20186;-70
2023/10/09 07:29:47;;;;;;;20.43;5.20;;;;;;;;;;5049361;28;20234;-71
2023/10/09 07:32:12;;;;;;;23.37;7.03;;;;;;;;;;5045781;28;20172;-71
2023/10/09 07:34:53;;;;;;;21.33;4.77;;;;;;;;;;5041262;28;20192;-71
2023/10/09 07:37:30;;;;;;;28.67;5.93;;;;;;;;;;5039794;28;20183;-71
2023/10/09 07:39:58;;;;;;;18.70;6.20;;;;;;;;;;5052004;28;20176;-71
2023/10/09 07:42:43;;;;;;;18.73;5.77;;;;;;;;;;5039659;28;20177;-71
2023/10/09 07:50:37;;;;;;;23.30;6.47;;;;;;;;;;5038433;28;20186;-71
2023/10/09 07:53:14;;;;;;;22.67;5.93;;;;;;;;;;5044828;28;20170;-71
2023/10/09 07:55:45;;;;;;;19.37;5.60;;;;;;;;;;5042938;28;20181;-71
2023/10/09 07:58:11;;;;;;;21.27;5.60;;;;;;;;;;5038123;28;20197;-70
2023/10/09 08:00:49;;;;;;;20.33;5.67;;;;;;;;;;5040344;28;20174;-70
2023/10/09 08:03:23;;;;;;;24.83;5.40;;;;;;;;;;5044315;28;20173;-70
2023/10/09 08:05:49;;;;;;;21.20;6.13;;;;;;;;;;5039687;28;20190;-71
2023/10/09 08:13:49;;;;;;;20.27;5.60;;;;;;;;;;5035760;28;20175;-71
2023/10/09 08:16:21;;;;;;;20.97;5.40;;;;;;;;;;5041026;28;20202;-71
2023/10/09 08:18:50;;;;;;;16.73;4.43;;;;;;;;;;5045115;28;20213;-71
2023/10/09 08:23:50;;;;;;;20.70;6.13;;;;;;;;;;5048880;28;20275;-71
2023/10/09 08:26:28;;;;;;;12.23;5.07;;;;;;;;;;5048393;28;20237;-71
2023/10/09 08:28:54;;;;;;;24.03;5.43;;;;;;;;;;5047807;28;20173;-70
2023/10/09 08:31:34;;;;;;;21.37;4.27;;;;;;;;;;5037718;28;20203;-71
2023/10/09 08:34:00;;;;;;;11.67;4.83;;;;;;;;;;5044804;28;20180;-71
2023/10/09 08:36:36;;;;;;;12.77;4.53;;;;;;;;;;5044389;28;20185;-71
2023/10/09 08:39:14;;;;;;;16.83;4.80;;;;;;;;;;5043760;28;20186;-71
2023/10/09 08:41:40;;;;;;;13.37;4.30;;;;;;;;;;5044013;28;20231;-71
2023/10/09 08:44:06;;;;;;;16.13;4.70;;;;;;;;;;5050499;28;20181;-71
2023/10/09 08:46:32;;;;;;;14.30;4.67;;;;;;;;;;5051061;28;20205;-71
2023/10/09 08:48:58;;;;;;;17.07;3.93;;;;;;;;;;5044005;28;20256;-71
2023/10/09 08:51:25;;;;;;;12.10;4.53;;;;;;;;;;5046226;28;20183;-71
2023/10/09 08:53:52;;;;;;;13.97;4.53;;;;;;;;;;5056815;28;20192;-71
2023/10/09 08:56:21;;;;;;;12.33;4.40;;;;;;;;;;5039809;28;20201;-71
2023/10/09 08:58:47;;;;;;;14.93;4.43;;;;;;;;;;5039903;28;20177;-71
2023/10/09 09:01:17;;;;;;;16.70;4.20;;;;;;;;;;5046954;28;20257;-71
2023/10/09 09:03:45;;;;;;;27.57;4.53;;;;;;;;;;5045326;28;20214;-70
2023/10/09 09:06:11;;;;;;;14.07;4.70;;;;;;;;;;5054320;28;20194;-71
2023/10/09 09:08:37;;;;;;;16.67;4.93;;;;;;;;;;5045112;28;20490;-70
2023/10/09 09:11:12;;;;;;;16.90;4.20;;;;;;;;;;5049083;28;20179;-71
2023/10/09 09:13:41;;;;;;;15.90;4.33;;;;;;;;;;5044810;28;20194;-71
2023/10/09 09:16:20;;;;;;;11.23;4.77;;;;;;;;;;5043972;28;20175;-71
2023/10/09 09:19:00;;;;;;;14.97;4.73;;;;;;;;;;5044985;28;20181;-70
2023/10/09 09:21:27;;;;;;;20.10;4.60;;;;;;;;;;5047748;28;20261;-71
2023/10/09 09:24:03;;;;;;;19.77;5.23;;;;;;;;;;5046882;28;20227;-71
2023/10/09 09:26:44;;;;;;;15.77;4.40;;;;;;;;;;5044977;28;20220;-71
2023/10/09 09:29:10;;;;;;;17.30;4.83;;;;;;;;;;5048141;28;20179;-71
2023/10/09 09:31:37;;;;;;;23.20;4.60;;;;;;;;;;5046424;28;20199;-71
2023/10/09 09:34:17;;;;;;;13.20;3.90;;;;;;;;;;5045824;28;20234;-71
2023/10/09 09:36:58;;;;;;;14.50;3.83;;;;;;;;;;5048476;28;20190;-71
2023/10/09 09:39:27;;;;;;;15.27;5.57;;;;;;;;;;5048121;28;20205;-71
2023/10/09 09:42:13;;;;;;;13.47;4.20;;;;;;;;;;5049166;28;20247;-71
2023/10/09 09:44:48;;;;;;;20.53;4.30;;;;;;;;;;5049128;28;20217;-71
2023/10/09 09:47:23;;;;;;;14.27;4.27;;;;;;;;;;5050998;28;20233;-71
2023/10/09 09:49:50;;;;;;;14.50;3.43;;;;;;;;;;5046408;28;20189;-70
2023/10/09 09:52:18;;;;;;;11.17;4.40;;;;;;;;;;5039669;28;20183;-71
2023/10/09 09:54:43;;;;;;;15.43;4.30;;;;;;;;;;5041750;28;20211;-71
2023/10/09 09:57:08;;;;;;;14.67;4.33;;;;;;;;;;5038971;28;20186;-71
2023/10/09 09:59:40;;;;;;;8.13;3.73;;;;;;;;;;5040205;28;20190;-71
2023/10/09 10:02:09;;;;;;;11.53;3.90;;;;;;;;;;5047272;28;20256;-71
2023/10/09 10:04:35;;;;;;;8.60;3.50;;;;;;;;;;5044995;28;20186;-71
2023/10/09 10:07:08;;;;;;;16.30;4.87;;;;;;;;;;5051267;28;20180;-70
2023/10/09 10:09:41;;;;;;;13.17;4.63;;;;;;;;;;5044857;28;20240;-71
2023/10/09 10:12:14;;;;;;;12.77;4.10;;;;;;;;;;5042835;28;20230;-71
2023/10/09 10:17:53;;;;;;;18.17;5.00;;;;;;;;;;5044926;28;20189;-71
2023/10/09 10:22:47;;;;;;;10.77;4.37;;;;;;;;;;5044262;28;20198;-71
2023/10/09 10:25:32;;;;;;;8.47;3.63;;;;;;;;;;5042428;28;20244;-71
2023/10/09 10:28:16;;;;;;;14.47;4.30;;;;;;;;;;5042885;28;20179;-71
2023/10/09 10:30:51;;;;;;;8.17;4.17;;;;;;;;;;5045058;28;20223;-71
2023/10/09 10:33:17;;;;;;;10.57;4.43;;;;;;;;;;5041979;28;20248;-71
2023/10/09 10:35:45;;;;;;;10.00;4.50;;;;;;;;;;5042762;28;20275;-71
2023/10/09 10:38:23;;;;;;;14.43;4.17;;;;;;;;;;5043098;28;20211;-71
2023/10/09 10:40:56;;;;;;;7.17;3.30;;;;;;;;;;5042858;28;20178;-70
2023/10/09 10:43:47;;;;;;;10.53;3.60;;;;;;;;;;5044601;28;20268;-71
2023/10/09 10:46:37;;;;;;;9.57;3.37;;;;;;;;;;5045120;28;20202;-71
2023/10/09 10:49:14;;;;;;;10.10;3.93;;;;;;;;;;5047011;28;20180;-71
2023/10/09 10:51:39;;;;;;;6.47;3.57;;;;;;;;;;5039401;28;20183;-71
2023/10/09 10:56:51;;;;;;;8.90;2.90;;;;;;;;;;5046137;28;20187;-71
2023/10/09 10:59:23;;;;;;;8.93;3.43;;;;;;;;;;5044837;28;20258;-71
2023/10/09 11:02:13;;;;;;;8.77;3.40;;;;;;;;;;5046582;28;20486;-71
2023/10/09 11:04:41;;;;;;;8.43;4.03;;;;;;;;;;5048402;28;20222;-71
2023/10/09 11:07:09;;;;;;;13.80;4.53;;;;;;;;;;5056653;28;20170;-71
2023/10/09 11:10:10;;;;;;;8.00;3.70;;;;;;;;;;5049795;28;20241;-71
2023/10/09 11:12:42;;;;;;;9.13;3.43;;;;;;;;;;5046310;28;20225;-71
2023/10/09 11:17:45;;;;;;;12.27;3.50;;;;;;;;;;5050200;28;20191;-71
2023/10/09 11:20:26;;;;;;;10.50;3.80;;;;;;;;;;5049663;28;20270;-71
2023/10/09 11:23:39;;;;;;;9.80;3.33;;;;;;;;;;5046357;28;20189;-71
2023/10/09 11:25:39;;;;;;;13.03;3.87;;;;;;;;;;5041767;28;20239;-71
2023/10/09 11:28:27;;;;;;;9.13;3.57;;;;;;;;;;5048285;28;20173;-71
2023/10/09 11:30:55;;;;;;;12.67;4.17;;;;;;;;;;5048730;28;20200;-71
2023/10/09 11:33:21;;;;;;;11.87;4.33;;;;;;;;;;5045951;28;20200;-71
2023/10/09 11:35:59;;;;;;;10.80;4.40;;;;;;;;;;5046787;28;20192;-71
2023/10/09 11:38:25;;;;;;;9.00;3.47;;;;;;;;;;5046567;28;20187;-70
2023/10/09 11:43:53;;;;;;;10.60;4.33;;;;;;;;;;5049560;28;20188;-71
2023/10/09 11:46:13;;;;;;;9.70;5.57;;;;;;;;;;5047940;28;20205;-71
2023/10/09 11:49:14;;;;;;;9.63;4.13;;;;;;;;;;5038698;28;20275;-71
2023/10/09 11:51:34;;;;;;;9.40;4.17;;;;;;;;;;5044439;28;20193;-71
2023/10/09 11:53:59;;;;;;;11.20;3.70;;;;;;;;;;5044002;28;20176;-71
2023/10/09 11:56:27;;;;;;;8.80;4.00;;;;;;;;;;5047059;28;20202;-71
2023/10/09 11:58:53;;;;;;;9.90;4.33;;;;;;;;;;5043782;28;20272;-71
2023/10/09 12:01:22;;;;;;;11.40;4.27;;;;;;;;;;5046830;28;20181;-71
2023/10/09 12:03:50;;;;;;;11.57;5.03;;;;;;;;;;5045194;28;20211;-71
2023/10/09 12:06:18;;;;;;;13.40;5.17;;;;;;;;;;5054758;28;20189;-71
2023/10/09 12:08:46;;;;;;;9.80;4.23;;;;;;;;;;5049678;28;20178;-71
2023/10/09 12:11:11;;;;;;;13.37;4.83;;;;;;;;;;5050522;28;20173;-71
2023/10/09 12:13:43;;;;;;;8.50;4.57;;;;;;;;;;5045051;28;20167;-71
2023/10/09 12:16:15;;;;;;;10.07;4.83;;;;;;;;;;5047031;28;20318;-71
2023/10/09 12:18:40;;;;;;;9.70;4.23;;;;;;;;;;5045369;28;20197;-71
2023/10/09 12:21:06;;;;;;;10.43;4.20;;;;;;;;;;5045995;28;20178;-71
2023/10/09 12:23:35;;;;;;;9.80;4.73;;;;;;;;;;5047946;28;20245;-70
2023/10/09 12:26:01;;;;;;;10.37;4.83;;;;;;;;;;5041837;28;20620;-71
2023/10/09 12:28:26;;;;;;;10.53;4.40;;;;;;;;;;5043162;28;20255;-71
2023/10/09 12:30:52;;;;;;;9.40;5.13;;;;;;;;;;5043631;28;20293;-71
2023/10/09 12:33:18;;;;;;;8.43;3.80;;;;;;;;;;5041919;28;20175;-71
2023/10/09 12:35:47;;;;;;;7.87;4.37;;;;;;;;;;5043383;28;20191;-72
2023/10/09 12:38:13;;;;;;;9.83;5.20;;;;;;;;;;5044135;28;20182;-72
2023/10/09 12:40:41;;;;;;;6.67;4.77;;;;;;;;;;5044671;28;20191;-72
2023/10/09 12:43:15;;;;;;;8.10;4.10;;;;;;;;;;5045730;28;20272;-72
2023/10/09 12:45:40;;;;;;;10.03;5.07;;;;;;;;;;5043917;28;20197;-72
2023/10/09 12:48:09;;;;;;;10.23;4.70;;;;;;;;;;5051094;28;20169;-72
2023/10/09 12:50:35;;;;;;;7.97;5.17;;;;;;;;;;5035455;28;20186;-72
2023/10/09 12:53:06;;;;;;;7.33;4.63;;;;;;;;;;5042563;28;20266;-72
2023/10/09 12:55:43;;;;;;;8.43;4.67;;;;;;;;;;5044100;28;20184;-72
2023/10/09 12:58:09;;;;;;;10.10;4.63;;;;;;;;;;5039907;28;20199;-72
2023/10/09 13:00:37;;;;;;;9.77;4.87;;;;;;;;;;5041281;28;20178;-72
2023/10/09 13:03:13;;;;;;;9.83;5.53;;;;;;;;;;5047784;28;20188;-72
2023/10/09 13:05:51;;;;;;;14.20;6.73;;;;;;;;;;5039713;28;20252;-72
2023/10/09 13:08:19;;;;;;;13.80;5.87;;;;;;;;;;5045944;28;20197;-72
2023/10/09 13:10:45;;;;;;;9.67;6.27;;;;;;;;;;5039499;28;20174;-72
2023/10/09 13:13:11;;;;;;;11.73;6.63;;;;;;;;;;5045173;28;20174;-72
2023/10/09 13:15:42;;;;;;;13.93;5.33;;;;;;;;;;5040886;28;20188;-72
2023/10/09 13:18:07;;;;;;;12.03;5.80;;;;;;;;;;5042890;28;20186;-72
2023/10/09 13:20:33;;;;;;;8.70;4.53;;;;;;;;;;5041146;28;20193;-72
2023/10/09 13:22:58;;;;;;;11.50;5.30;;;;;;;;;;5034155;28;20401;-72
2023/10/09 13:25:26;;;;;;;10.53;5.40;;;;;;;;;;5042512;28;20288;-72
2023/10/09 13:27:51;;;;;;;8.27;4.97;;;;;;;;;;5015765;28;20258;-72
2023/10/09 13:30:21;;;;;;;10.00;5.93;;;;;;;;;;5005947;28;20237;-72
2023/10/09 13:32:49;;;;;;;8.47;4.93;;;;;;;;;;5006522;28;20175;-72
2023/10/09 13:35:17;;;;;;;14.10;5.10;;;;;;;;;;5004428;28;20186;-73
2023/10/09 13:37:44;;;;;;;11.93;5.40;;;;;;;;;;5002693;28;20188;-72
2023/10/09 13:40:11;;;;;;;13.13;5.30;;;;;;;;;;5005908;28;20190;-72
2023/10/09 13:42:37;;;;;;;10.77;5.00;;;;;;;;;;5007793;28;20190;-72
2023/10/09 13:45:07;;;;;;;16.70;6.67;;;;;;;;;;5008607;28;20207;-72
2023/10/09 13:47:33;;;;;;;13.43;6.17;;;;;;;;;;5004343;28;20181;-73
2023/10/09 13:49:59;;;;;;;15.50;6.03;;;;;;;;;;5004534;28;20173;-72
2023/10/09 13:52:25;;;;;;;15.37;5.63;;;;;;;;;;5002868;28;20187;-72
2023/10/09 13:54:50;;;;;;;13.13;6.17;;;;;;;;;;5004303;28;20190;-72
2023/10/09 13:57:15;;;;;;;12.93;5.30;;;;;;;;;;5011928;28;20178;-72
2023/10/09 13:59:49;;;;;;;13.93;5.88;;;;;;;;;;5001343;28;20287;-72
2023/10/09 14:02:18;;;;;;;11.30;5.63;;;;;;;;;;5006758;28;20176;-73
2023/10/09 14:04:43;;;;;;;10.05;5.32;;;;;;;;;;5002249;28;20202;-73
2023/10/09 14:07:09;;;;;;;18.38;6.13;;;;;;;;;;5007624;28;20258;-73
2023/10/09 14:09:38;;;;;;;12.57;6.55;;;;;;;;;;5004601;28;20179;-72
2023/10/09 14:12:09;;;;;;;15.45;7.38;;;;;;;;;;5013110;28;20263;-73
2023/10/09 14:14:37;;;;;;;13.90;6.70;;;;;;;;;;5007741;28;20262;-73
2023/10/09 14:17:11;;;;;;;14.00;6.07;;;;;;;;;;5010432;28;20168;-73
2023/10/09 14:19:36;;;;;;;12.38;6.20;;;;;;;;;;5004908;28;20176;-73
2023/10/09 14:22:05;;;;;;;9.02;4.97;;;;;;;;;;5003042;28;20225;-72
2023/10/09 14:24:32;;;;;;;9.43;4.88;;;;;;;;;;5006081;28;20187;-73
2023/10/09 14:26:58;;;;;;;12.90;5.15;;;;;;;;;;5010720;28;20191;-73
2023/10/09 14:29:26;;;;;;;10.82;5.78;;;;;;;;;;5005638;28;20195;-73
2023/10/09 14:32:00;;;;;;;12.93;5.50;;;;;;;;;;5002833;28;20227;-73
2023/10/09 14:34:29;;;;;;;11.43;5.90;;;;;;;;;;5002389;28;20197;-73
2023/10/09 14:36:54;;;;;;;11.50;5.53;;;;;;;;;;5003677;28;20187;-73
2023/10/09 14:39:19;;;;;;;14.30;5.50;;;;;;;;;;5006688;28;20179;-73
2023/10/09 14:41:45;;;;;;;16.00;5.80;;;;;;;;;;5015042;28;20290;-73
2023/10/09 14:44:16;;;;;;;10.90;5.43;;;;;;;;;;5007826;28;20198;-73
2023/10/09 14:46:41;;;;;;;11.05;5.78;;;;;;;;;;5016784;28;20223;-73
2023/10/09 14:49:06;;;;;;;11.93;5.78;;;;;;;;;;5006582;28;20266;-73
2023/10/09 14:51:32;;;;;;;12.07;4.85;;;;;;;;;;5003611;28;20179;-73
2023/10/09 14:53:57;;;;;;;15.25;5.65;;;;;;;;;;5003434;28;20183;-73
2023/10/09 14:56:28;;;;;;;11.98;5.55;;;;;;;;;;5006724;28;20175;-73
2023/10/09 14:58:56;;;;;;;9.95;5.13;;;;;;;;;;5006240;28;20191;-73
2023/10/09 15:01:24;;;;;;;18.98;5.90;;;;;;;;;;5016070;28;20188;-73
2023/10/09 15:03:52;;;;;;;9.85;5.57;;;;;;;;;;5004970;28;20175;-73
2023/10/09 15:06:18;;;;;;;13.63;5.15;;;;;;;;;;5011017;28;20218;-73
2023/10/09 15:08:43;;;;;;;13.55;5.45;;;;;;;;;;5010217;28;20188;-73
2023/10/09 15:11:08;;;;;;;13.18;5.40;;;;;;;;;;5007232;28;20192;-72
2023/10/09 15:13:34;;;;;;;8.45;4.97;;;;;;;;;;5004206;28;20290;-73
2023/10/09 15:16:02;;;;;;;11.57;4.80;;;;;;;;;;5011864;28;20401;-73
2023/10/09 15:18:28;;;;;;;9.77;4.78;;;;;;;;;;5007766;28;20191;-73
2023/10/09 15:20:54;;;;;;;9.85;4.65;;;;;;;;;;5005374;28;20271;-73
2023/10/09 15:23:21;;;;;;;10.30;4.70;;;;;;;;;;5007794;28;20258;-73
2023/10/09 15:25:49;;;;;;;10.15;4.45;;;;;;;;;;5009730;28;20235;-73
2023/10/09 15:28:15;;;;;;;12.40;5.05;;;;;;;;;;5003202;28;20206;-73
2023/10/09 15:30:41;;;;;;;10.90;4.47;;;;;;;;;;5005342;28;20292;-73
2023/10/09 15:33:08;;;;;;;12.38;4.57;;;;;;;;;;5010387;28;20191;-73
2023/10/09 15:35:33;;;;;;;9.52;4.63;;;;;;;;;;5010443;28;20180;-73
2023/10/09 15:38:03;;;;;;;9.98;4.97;;;;;;;;;;5005885;28;20257;-73
2023/10/09 15:40:33;;;;;;;12.27;5.15;;;;;;;;;;5004991;28;20214;-73
2023/10/09 15:42:58;;;;;;;16.83;5.55;;;;;;;;;;5002445;28;20180;-73
2023/10/09 15:45:28;;;;;;;10.63;5.22;;;;;;;;;;5013451;28;20211;-73
2023/10/09 15:47:53;;;;;;;12.52;5.70;;;;;;;;;;5002552;28;20251;-73
2023/10/09 15:50:19;;;;;;;13.88;4.88;;;;;;;;;;5009973;28;20284;-73
2023/10/09 15:52:47;;;;;;;10.15;4.25;;;;;;;;;;5007434;28;20270;-72
2023/10/09 15:55:16;;;;;;;11.87;5.30;;;;;;;;;;5026557;28;20250;-73
2023/10/09 15:57:42;;;;;;;10.90;4.73;;;;;;;;;;5010846;28;20183;-72
2023/10/09 16:00:13;;;;;;;10.65;5.40;;;;;;;;;;5009245;28;20191;-72
2023/10/09 16:02:43;;;;;;;13.20;5.07;;;;;;;;;;5004754;28;20186;-73
2023/10/09 16:05:11;;;;;;;16.73;5.80;;;;;;;;;;5008602;28;20243;-73
2023/10/09 16:07:37;;;;;;;14.77;8.60;;;;;;;;;;5007671;28;20180;-73
2023/10/09 16:10:05;;;;;;;14.20;5.60;;;;;;;;;;5000114;28;20194;-73
2023/10/09 16:12:31;;;;;;;12.17;5.60;;;;;;;;;;5007045;28;20183;-73
2023/10/09 16:14:56;;;;;;;13.80;4.57;;;;;;;;;;5003911;28;20258;-73
2023/10/09 16:17:23;;;;;;;11.47;3.80;;;;;;;;;;5011074;28;20193;-73
2023/10/09 16:19:50;;;;;;;13.20;5.70;;;;;;;;;;5009467;28;20186;-73
2023/10/09 16:22:16;;;;;;;15.23;5.40;;;;;;;;;;5007081;28;20183;-72
2023/10/09 16:24:41;;;;;;;14.93;6.00;;;;;;;;;;5009150;28;20245;-72
2023/10/09 16:27:07;;;;;;;12.33;4.90;;;;;;;;;;5007006;28;20198;-72
2023/10/09 16:29:32;;;;;;;16.00;5.57;;;;;;;;;;5008525;28;20236;-73
2023/10/09 16:31:58;;;;;;;15.27;5.03;;;;;;;;;;5009274;28;20176;-72
2023/10/09 16:34:26;;;;;;;13.67;4.73;;;;;;;;;;5008630;28;20204;-72
2023/10/09 16:36:51;;;;;;;10.30;4.57;;;;;;;;;;5007319;28;20186;-73
2023/10/09 16:39:22;;;;;;;13.33;6.43;;;;;;;;;;5007225;28;20236;-73
2023/10/09 16:41:47;;;;;;;12.03;5.33;;;;;;;;;;5008515;28;20273;-72